sensor_id;sensor_type;location;lat;lon;timestamp;temperature;humidity
10155;DHT22;5118;48.570;7.916;2023-11-19T00:00:20;9.60;99.90
10155;DHT22;5118;48.570;7.916;2023-11-19T00:02:48;9.60;99.90
10155;DHT22;5118;48.570;7.916;2023-11-19T00:05:17;9.60;99.90
10155;DHT22;5118;48.570;7.916;2023-11-19T00:07:45;9.60;99.90
10155;DHT22;5118;48.570;7.916;2023-11-19T00:10:15;9.60;99.90
10155;DHT22;5118;48.570;7.916;2023-11-19T00:12:48;9.70;99.90
10155;DHT22;5118;48.570;7.916;2023-11-19T00:15:17;9.70;99.90
10155;DHT22;5118;48.570;7.916;2023-11-19T00:17:47;9.70;99.90
10155;DHT22;5118;48.570;7.916;2023-11-19T00:20:18;9.70;99.90
10155;DHT22;5118;48.570;7.916;2023-11-19T00:22:47;9.80;99.90
10155;DHT22;5118;48.570;7.916;2023-11-19T00:25:19;9.80;99.90
10155;DHT22;5118;48.570;7.916;2023-11-19T00:27:50;9.80;99.90
10155;DHT22;5118;48.570;7.916;2023-11-19T00:30:21;9.80;99.90
10155;DHT22;5118;48.570;7.916;2023-11-19T00:32:49;9.80;99.90
10155;DHT22;5118;48.570;7.916;2023-11-19T00:35:18;9.90;99.90
10155;DHT22;5118;48.570;7.916;2023-11-19T00:37:46;9.90;99.90
10155;DHT22;5118;48.570;7.916;2023-11-19T00:40:16;9.90;99.90
10155;DHT22;5118;48.570;7.916;2023-11-19T00:42:45;9.90;99.90
10155;DHT22;5118;48.570;7.916;2023-11-19T00:45:16;9.90;99.90
10155;DHT22;5118;48.570;7.916;2023-11-19T00:47:44;9.90;99.90
10155;DHT22;5118;48.570;7.916;2023-11-19T00:50:13;9.90;99.90
10155;DHT22;5118;48.570;7.916;2023-11-19T00:52:41;9.90;99.90
10155;DHT22;5118;48.570;7.916;2023-11-19T00:55:10;9.90;99.90
10155;DHT22;5118;48.570;7.916;2023-11-19T00:57:40;9.90;99.90
10155;DHT22;5118;48.570;7.916;2023-11-19T01:00:09;10.00;99.90
10155;DHT22;5118;48.570;7.916;2023-11-19T01:02:48;10.00;99.90
10155;DHT22;5118;48.570;7.916;2023-11-19T01:05:19;10.00;99.90
10155;DHT22;5118;48.570;7.916;2023-11-19T01:07:50;10.00;99.90
10155;DHT22;5118;48.570;7.916;2023-11-19T01:10:22;10.00;99.90
10155;DHT22;5118;48.570;7.916;2023-11-19T01:12:51;10.00;99.90
10155;DHT22;5118;48.570;7.916;2023-11-19T01:15:20;10.00;99.90
10155;DHT22;5118;48.570;7.916;2023-11-19T01:17:51;10.00;99.90
10155;DHT22;5118;48.570;7.916;2023-11-19T01:20:20;10.00;99.90
10155;DHT22;5118;48.570;7.916;2023-11-19T01:22:49;10.10;99.90
10155;DHT22;5118;48.570;7.916;2023-11-19T01:25:18;10.10;99.90
10155;DHT22;5118;48.570;7.916;2023-11-19T01:27:47;10.10;99.90
10155;DHT22;5118;48.570;7.916;2023-11-19T01:30:17;10.10;99.90
10155;DHT22;5118;48.570;7.916;2023-11-19T01:32:48;10.10;99.90
10155;DHT22;5118;48.570;7.916;2023-11-19T01:35:18;10.10;99.90
10155;DHT22;5118;48.570;7.916;2023-11-19T01:37:49;10.10;99.90
10155;DHT22;5118;48.570;7.916;2023-11-19T01:40:20;10.20;99.90
10155;DHT22;5118;48.570;7.916;2023-11-19T01:42:49;10.20;99.90
10155;DHT22;5118;48.570;7.916;2023-11-19T01:45:26;10.20;99.90
10155;DHT22;5118;48.570;7.916;2023-11-19T01:47:56;10.20;99.90
10155;DHT22;5118;48.570;7.916;2023-11-19T01:50:26;10.20;99.90
10155;DHT22;5118;48.570;7.916;2023-11-19T01:52:57;10.20;99.90
10155;DHT22;5118;48.570;7.916;2023-11-19T01:55:27;10.30;99.90
10155;DHT22;5118;48.570;7.916;2023-11-19T01:57:59;10.30;99.90
10155;DHT22;5118;48.570;7.916;2023-11-19T02:00:30;10.30;99.90
10155;DHT22;5118;48.570;7.916;2023-11-19T02:03:00;10.30;99.90
10155;DHT22;5118;48.570;7.916;2023-11-19T02:05:32;10.40;99.90
10155;DHT22;5118;48.570;7.916;2023-11-19T02:08:01;10.40;99.90
10155;DHT22;5118;48.570;7.916;2023-11-19T02:10:30;10.40;99.90
10155;DHT22;5118;48.570;7.916;2023-11-19T02:13:00;10.40;99.90
10155;DHT22;5118;48.570;7.916;2023-11-19T02:15:32;10.40;99.90
10155;DHT22;5118;48.570;7.916;2023-11-19T02:18:26;10.40;99.90
10155;DHT22;5118;48.570;7.916;2023-11-19T02:20:58;10.50;99.90
10155;DHT22;5118;48.570;7.916;2023-11-19T02:23:28;10.50;99.90
10155;DHT22;5118;48.570;7.916;2023-11-19T02:26:05;10.50;99.90
10155;DHT22;5118;48.570;7.916;2023-11-19T02:28:39;10.50;99.90
10155;DHT22;5118;48.570;7.916;2023-11-19T02:31:10;10.50;99.90
10155;DHT22;5118;48.570;7.916;2023-11-19T02:33:39;10.50;99.90
10155;DHT22;5118;48.570;7.916;2023-11-19T02:36:08;10.50;99.90
10155;DHT22;5118;48.570;7.916;2023-11-19T02:38:37;10.50;99.90
10155;DHT22;5118;48.570;7.916;2023-11-19T02:41:06;10.50;99.90
10155;DHT22;5118;48.570;7.916;2023-11-19T02:43:38;10.50;99.90
10155;DHT22;5118;48.570;7.916;2023-11-19T02:46:07;10.50;99.90
10155;DHT22;5118;48.570;7.916;2023-11-19T02:48:38;10.50;99.90
10155;DHT22;5118;48.570;7.916;2023-11-19T02:51:07;10.50;99.90
10155;DHT22;5118;48.570;7.916;2023-11-19T02:53:38;10.50;99.90
10155;DHT22;5118;48.570;7.916;2023-11-19T02:56:08;10.50;99.90
10155;DHT22;5118;48.570;7.916;2023-11-19T02:58:48;10.50;99.90
10155;DHT22;5118;48.570;7.916;2023-11-19T03:01:22;10.60;99.90
10155;DHT22;5118;48.570;7.916;2023-11-19T03:03:58;10.60;99.90
10155;DHT22;5118;48.570;7.916;2023-11-19T03:06:30;10.60;99.90
10155;DHT22;5118;48.570;7.916;2023-11-19T03:08:59;10.60;99.90
10155;DHT22;5118;48.570;7.916;2023-11-19T03:11:33;10.60;99.90
10155;DHT22;5118;48.570;7.916;2023-11-19T03:14:03;10.60;99.90
10155;DHT22;5118;48.570;7.916;2023-11-19T03:16:32;10.60;99.90
10155;DHT22;5118;48.570;7.916;2023-11-19T03:19:00;10.60;99.90
10155;DHT22;5118;48.570;7.916;2023-11-19T03:21:31;10.50;99.90
10155;DHT22;5118;48.570;7.916;2023-11-19T03:24:01;10.60;99.90
10155;DHT22;5118;48.570;7.916;2023-11-19T03:26:29;10.60;99.90
10155;DHT22;5118;48.570;7.916;2023-11-19T03:28:58;10.60;99.90
10155;DHT22;5118;48.570;7.916;2023-11-19T03:31:27;10.60;99.90
10155;DHT22;5118;48.570;7.916;2023-11-19T03:33:56;10.60;99.90
10155;DHT22;5118;48.570;7.916;2023-11-19T03:36:31;10.70;99.90
10155;DHT22;5118;48.570;7.916;2023-11-19T03:39:00;10.70;99.90
10155;DHT22;5118;48.570;7.916;2023-11-19T03:41:30;10.70;99.90
10155;DHT22;5118;48.570;7.916;2023-11-19T03:44:02;10.70;99.90
10155;DHT22;5118;48.570;7.916;2023-11-19T03:46:31;10.70;99.90
10155;DHT22;5118;48.570;7.916;2023-11-19T03:49:00;10.70;99.90
10155;DHT22;5118;48.570;7.916;2023-11-19T03:51:29;10.70;99.90
10155;DHT22;5118;48.570;7.916;2023-11-19T03:53:57;10.70;99.90
10155;DHT22;5118;48.570;7.916;2023-11-19T03:56:26;10.80;99.90
10155;DHT22;5118;48.570;7.916;2023-11-19T03:58:55;10.70;99.90
10155;DHT22;5118;48.570;7.916;2023-11-19T04:01:23;10.80;99.90
10155;DHT22;5118;48.570;7.916;2023-11-19T04:03:53;10.80;99.90
10155;DHT22;5118;48.570;7.916;2023-11-19T04:06:23;10.80;99.90
10155;DHT22;5118;48.570;7.916;2023-11-19T04:08:51;10.90;99.90
10155;DHT22;5118;48.570;7.916;2023-11-19T04:11:20;10.90;99.90
10155;DHT22;5118;48.570;7.916;2023-11-19T04:13:48;10.90;99.90
10155;DHT22;5118;48.570;7.916;2023-11-19T04:16:17;10.90;99.90
10155;DHT22;5118;48.570;7.916;2023-11-19T04:18:45;10.90;99.90
10155;DHT22;5118;48.570;7.916;2023-11-19T04:21:15;11.00;99.90
10155;DHT22;5118;48.570;7.916;2023-11-19T04:23:44;11.00;99.90
10155;DHT22;5118;48.570;7.916;2023-11-19T04:26:12;11.00;99.90
10155;DHT22;5118;48.570;7.916;2023-11-19T04:28:41;11.00;99.90
10155;DHT22;5118;48.570;7.916;2023-11-19T04:31:10;11.10;99.90
10155;DHT22;5118;48.570;7.916;2023-11-19T04:33:38;11.10;99.90
10155;DHT22;5118;48.570;7.916;2023-11-19T04:36:08;11.20;99.90
10155;DHT22;5118;48.570;7.916;2023-11-19T04:38:38;11.20;99.90
10155;DHT22;5118;48.570;7.916;2023-11-19T04:41:06;11.20;99.90
10155;DHT22;5118;48.570;7.916;2023-11-19T04:43:35;11.20;99.90
10155;DHT22;5118;48.570;7.916;2023-11-19T04:46:04;11.30;99.90
10155;DHT22;5118;48.570;7.916;2023-11-19T04:48:32;11.30;99.90
10155;DHT22;5118;48.570;7.916;2023-11-19T04:51:05;11.30;99.90
10155;DHT22;5118;48.570;7.916;2023-11-19T04:53:33;11.30;99.90
10155;DHT22;5118;48.570;7.916;2023-11-19T04:56:07;11.30;99.90
10155;DHT22;5118;48.570;7.916;2023-11-19T04:58:36;11.30;99.90
10155;DHT22;5118;48.570;7.916;2023-11-19T05:01:05;11.40;99.90
10155;DHT22;5118;48.570;7.916;2023-11-19T05:03:33;11.40;99.90
10155;DHT22;5118;48.570;7.916;2023-11-19T05:06:04;11.40;99.90
10155;DHT22;5118;48.570;7.916;2023-11-19T05:08:33;11.40;99.90
10155;DHT22;5118;48.570;7.916;2023-11-19T05:11:03;11.40;99.90
10155;DHT22;5118;48.570;7.916;2023-11-19T05:13:33;11.50;99.90
10155;DHT22;5118;48.570;7.916;2023-11-19T05:16:01;11.50;99.90
10155;DHT22;5118;48.570;7.916;2023-11-19T05:18:30;11.50;99.90
10155;DHT22;5118;48.570;7.916;2023-11-19T05:20:58;11.50;99.90
10155;DHT22;5118;48.570;7.916;2023-11-19T05:23:26;11.60;99.90
10155;DHT22;5118;48.570;7.916;2023-11-19T05:25:55;11.60;99.90
10155;DHT22;5118;48.570;7.916;2023-11-19T05:28:26;11.60;99.90
10155;DHT22;5118;48.570;7.916;2023-11-19T05:30:55;11.60;99.90
10155;DHT22;5118;48.570;7.916;2023-11-19T05:33:23;11.60;99.90
10155;DHT22;5118;48.570;7.916;2023-11-19T05:35:52;11.60;99.90
10155;DHT22;5118;48.570;7.916;2023-11-19T05:38:20;11.70;99.90
10155;DHT22;5118;48.570;7.916;2023-11-19T05:40:49;11.60;99.90
10155;DHT22;5118;48.570;7.916;2023-11-19T05:43:17;11.60;99.90
10155;DHT22;5118;48.570;7.916;2023-11-19T05:45:47;11.60;99.90
10155;DHT22;5118;48.570;7.916;2023-11-19T05:48:16;11.60;99.90
10155;DHT22;5118;48.570;7.916;2023-11-19T05:50:44;11.60;99.90
10155;DHT22;5118;48.570;7.916;2023-11-19T05:53:13;11.60;99.90
10155;DHT22;5118;48.570;7.916;2023-11-19T05:55:42;11.60;99.90
10155;DHT22;5118;48.570;7.916;2023-11-19T05:58:23;11.60;99.90
10155;DHT22;5118;48.570;7.916;2023-11-19T06:00:54;11.60;99.90
10155;DHT22;5118;48.570;7.916;2023-11-19T06:03:23;11.60;99.90
10155;DHT22;5118;48.570;7.916;2023-11-19T06:05:52;11.70;99.90
10155;DHT22;5118;48.570;7.916;2023-11-19T06:08:21;11.70;99.90
10155;DHT22;5118;48.570;7.916;2023-11-19T06:10:50;11.70;99.90
10155;DHT22;5118;48.570;7.916;2023-11-19T06:13:19;11.80;99.90
10155;DHT22;5118;48.570;7.916;2023-11-19T06:15:51;11.80;99.90
10155;DHT22;5118;48.570;7.916;2023-11-19T06:18:21;11.80;99.90
10155;DHT22;5118;48.570;7.916;2023-11-19T06:20:50;11.90;99.90
10155;DHT22;5118;48.570;7.916;2023-11-19T06:23:19;11.90;99.90
10155;DHT22;5118;48.570;7.916;2023-11-19T06:25:47;11.90;99.90
10155;DHT22;5118;48.570;7.916;2023-11-19T06:28:16;11.90;99.90
10155;DHT22;5118;48.570;7.916;2023-11-19T06:30:44;12.00;99.90
10155;DHT22;5118;48.570;7.916;2023-11-19T06:33:15;12.00;99.90
10155;DHT22;5118;48.570;7.916;2023-11-19T06:35:45;12.00;99.90
10155;DHT22;5118;48.570;7.916;2023-11-19T06:38:14;12.00;99.90
10155;DHT22;5118;48.570;7.916;2023-11-19T06:40:43;12.00;99.90
10155;DHT22;5118;48.570;7.916;2023-11-19T06:43:11;12.00;99.90
10155;DHT22;5118;48.570;7.916;2023-11-19T06:45:41;12.00;99.90
10155;DHT22;5118;48.570;7.916;2023-11-19T06:48:09;12.00;99.90
10155;DHT22;5118;48.570;7.916;2023-11-19T06:50:38;12.10;99.90
10155;DHT22;5118;48.570;7.916;2023-11-19T06:53:07;12.10;99.90
10155;DHT22;5118;48.570;7.916;2023-11-19T06:55:37;12.10;99.90
10155;DHT22;5118;48.570;7.916;2023-11-19T06:58:06;12.10;99.90
10155;DHT22;5118;48.570;7.916;2023-11-19T07:00:34;12.10;99.90
10155;DHT22;5118;48.570;7.916;2023-11-19T07:03:03;12.20;99.90
10155;DHT22;5118;48.570;7.916;2023-11-19T07:05:33;12.10;99.90
10155;DHT22;5118;48.570;7.916;2023-11-19T07:08:03;12.20;99.90
10155;DHT22;5118;48.570;7.916;2023-11-19T07:10:33;12.20;99.90
10155;DHT22;5118;48.570;7.916;2023-11-19T07:13:01;12.30;99.90
10155;DHT22;5118;48.570;7.916;2023-11-19T07:15:30;12.30;99.90
10155;DHT22;5118;48.570;7.916;2023-11-19T07:17:59;12.30;99.90
10155;DHT22;5118;48.570;7.916;2023-11-19T07:20:29;12.40;99.90
10155;DHT22;5118;48.570;7.916;2023-11-19T07:22:58;12.40;99.90
10155;DHT22;5118;48.570;7.916;2023-11-19T07:25:27;12.40;99.90
10155;DHT22;5118;48.570;7.916;2023-11-19T07:27:57;12.40;99.90
10155;DHT22;5118;48.570;7.916;2023-11-19T07:30:25;12.50;99.90
10155;DHT22;5118;48.570;7.916;2023-11-19T07:32:54;12.50;99.90
10155;DHT22;5118;48.570;7.916;2023-11-19T07:35:22;12.50;99.90
10155;DHT22;5118;48.570;7.916;2023-11-19T07:37:51;12.50;99.90
10155;DHT22;5118;48.570;7.916;2023-11-19T07:40:19;12.60;99.90
10155;DHT22;5118;48.570;7.916;2023-11-19T07:42:48;12.60;99.90
10155;DHT22;5118;48.570;7.916;2023-11-19T07:45:18;12.60;99.90
10155;DHT22;5118;48.570;7.916;2023-11-19T07:47:46;12.70;99.90
10155;DHT22;5118;48.570;7.916;2023-11-19T07:50:15;12.70;99.90
10155;DHT22;5118;48.570;7.916;2023-11-19T07:52:48;12.70;99.90
10155;DHT22;5118;48.570;7.916;2023-11-19T07:55:17;12.70;99.90
10155;DHT22;5118;48.570;7.916;2023-11-19T07:57:47;12.70;99.90
10155;DHT22;5118;48.570;7.916;2023-11-19T08:00:18;12.80;99.90
10155;DHT22;5118;48.570;7.916;2023-11-19T08:02:47;12.80;99.90
10155;DHT22;5118;48.570;7.916;2023-11-19T08:05:16;12.80;99.90
10155;DHT22;5118;48.570;7.916;2023-11-19T08:07:45;12.90;99.90
10155;DHT22;5118;48.570;7.916;2023-11-19T08:10:13;12.90;99.90
10155;DHT22;5118;48.570;7.916;2023-11-19T08:12:42;12.90;99.90
10155;DHT22;5118;48.570;7.916;2023-11-19T08:15:10;12.90;99.90
10155;DHT22;5118;48.570;7.916;2023-11-19T08:17:40;12.90;99.90
10155;DHT22;5118;48.570;7.916;2023-11-19T08:20:10;12.90;99.90
10155;DHT22;5118;48.570;7.916;2023-11-19T08:22:39;12.90;99.90
10155;DHT22;5118;48.570;7.916;2023-11-19T08:25:08;12.90;99.90
10155;DHT22;5118;48.570;7.916;2023-11-19T08:27:36;12.90;99.90
10155;DHT22;5118;48.570;7.916;2023-11-19T08:30:08;12.90;99.90
10155;DHT22;5118;48.570;7.916;2023-11-19T08:32:36;12.90;99.90
10155;DHT22;5118;48.570;7.916;2023-11-19T08:35:07;12.90;99.90
10155;DHT22;5118;48.570;7.916;2023-11-19T08:37:35;12.90;99.90
10155;DHT22;5118;48.570;7.916;2023-11-19T08:40:06;12.90;99.90
10155;DHT22;5118;48.570;7.916;2023-11-19T08:42:35;13.00;99.90
10155;DHT22;5118;48.570;7.916;2023-11-19T08:45:07;13.00;99.90
10155;DHT22;5118;48.570;7.916;2023-11-19T08:47:37;13.00;99.90
10155;DHT22;5118;48.570;7.916;2023-11-19T08:50:10;13.00;99.90
10155;DHT22;5118;48.570;7.916;2023-11-19T08:52:38;13.00;99.90
10155;DHT22;5118;48.570;7.916;2023-11-19T08:55:07;13.00;99.90
10155;DHT22;5118;48.570;7.916;2023-11-19T08:57:37;13.00;99.90
10155;DHT22;5118;48.570;7.916;2023-11-19T09:00:06;13.00;99.90
10155;DHT22;5118;48.570;7.916;2023-11-19T09:02:35;13.00;99.90
10155;DHT22;5118;48.570;7.916;2023-11-19T09:05:05;13.00;99.90
10155;DHT22;5118;48.570;7.916;2023-11-19T09:07:36;13.00;99.90
10155;DHT22;5118;48.570;7.916;2023-11-19T09:10:05;13.00;99.90
10155;DHT22;5118;48.570;7.916;2023-11-19T09:12:36;13.00;99.90
10155;DHT22;5118;48.570;7.916;2023-11-19T09:15:06;13.00;99.90
10155;DHT22;5118;48.570;7.916;2023-11-19T09:17:37;13.00;99.90
10155;DHT22;5118;48.570;7.916;2023-11-19T09:20:06;13.00;99.90
10155;DHT22;5118;48.570;7.916;2023-11-19T09:22:37;13.00;99.90
10155;DHT22;5118;48.570;7.916;2023-11-19T09:25:06;13.00;99.90
10155;DHT22;5118;48.570;7.916;2023-11-19T09:27:35;13.10;99.90
10155;DHT22;5118;48.570;7.916;2023-11-19T09:30:04;13.20;99.90
10155;DHT22;5118;48.570;7.916;2023-11-19T09:32:33;13.20;99.90
10155;DHT22;5118;48.570;7.916;2023-11-19T09:35:01;13.30;99.90
10155;DHT22;5118;48.570;7.916;2023-11-19T09:37:29;13.40;99.90
10155;DHT22;5118;48.570;7.916;2023-11-19T09:39:59;13.40;99.90
10155;DHT22;5118;48.570;7.916;2023-11-19T09:42:28;13.50;99.90
10155;DHT22;5118;48.570;7.916;2023-11-19T09:44:56;13.60;99.90
10155;DHT22;5118;48.570;7.916;2023-11-19T09:47:26;13.70;99.90
10155;DHT22;5118;48.570;7.916;2023-11-19T09:49:57;13.80;99.90
10155;DHT22;5118;48.570;7.916;2023-11-19T09:52:25;13.80;99.90
10155;DHT22;5118;48.570;7.916;2023-11-19T09:54:54;13.80;99.90
10155;DHT22;5118;48.570;7.916;2023-11-19T09:57:24;13.80;99.90
10155;DHT22;5118;48.570;7.916;2023-11-19T09:59:52;13.80;99.90
10155;DHT22;5118;48.570;7.916;2023-11-19T10:02:21;13.80;99.90
10155;DHT22;5118;48.570;7.916;2023-11-19T10:04:51;13.80;99.90
10155;DHT22;5118;48.570;7.916;2023-11-19T10:07:21;13.70;99.90
10155;DHT22;5118;48.570;7.916;2023-11-19T10:09:53;13.70;99.90
10155;DHT22;5118;48.570;7.916;2023-11-19T10:12:23;13.70;99.90
10155;DHT22;5118;48.570;7.916;2023-11-19T10:14:51;13.70;99.90
10155;DHT22;5118;48.570;7.916;2023-11-19T10:17:21;13.70;99.90
10155;DHT22;5118;48.570;7.916;2023-11-19T10:19:49;13.70;99.90
10155;DHT22;5118;48.570;7.916;2023-11-19T10:22:17;13.70;99.90
10155;DHT22;5118;48.570;7.916;2023-11-19T10:24:46;13.70;99.90
10155;DHT22;5118;48.570;7.916;2023-11-19T10:27:25;13.70;99.90
10155;DHT22;5118;48.570;7.916;2023-11-19T10:29:53;13.60;99.90
10155;DHT22;5118;48.570;7.916;2023-11-19T10:32:22;13.50;99.90
10155;DHT22;5118;48.570;7.916;2023-11-19T10:35:04;13.50;99.90
10155;DHT22;5118;48.570;7.916;2023-11-19T10:37:34;13.40;99.90
10155;DHT22;5118;48.570;7.916;2023-11-19T10:40:05;13.50;99.90
10155;DHT22;5118;48.570;7.916;2023-11-19T10:42:38;13.50;99.90
10155;DHT22;5118;48.570;7.916;2023-11-19T10:45:22;13.60;99.90
10155;DHT22;5118;48.570;7.916;2023-11-19T10:47:51;13.70;99.90
10155;DHT22;5118;48.570;7.916;2023-11-19T10:50:20;13.80;99.90
10155;DHT22;5118;48.570;7.916;2023-11-19T10:52:53;14.10;99.90
10155;DHT22;5118;48.570;7.916;2023-11-19T10:55:27;14.70;99.90
10155;DHT22;5118;48.570;7.916;2023-11-19T10:57:59;15.20;99.90
10155;DHT22;5118;48.570;7.916;2023-11-19T11:00:30;15.80;99.90
10155;DHT22;5118;48.570;7.916;2023-11-19T11:03:01;16.40;99.90
10155;DHT22;5118;48.570;7.916;2023-11-19T11:05:32;16.80;99.90
10155;DHT22;5118;48.570;7.916;2023-11-19T11:08:03;17.20;99.90
10155;DHT22;5118;48.570;7.916;2023-11-19T11:10:38;17.60;99.90
10155;DHT22;5118;48.570;7.916;2023-11-19T11:13:25;17.70;99.90
10155;DHT22;5118;48.570;7.916;2023-11-19T11:15:57;17.20;99.90
10155;DHT22;5118;48.570;7.916;2023-11-19T11:18:26;16.80;99.90
10155;DHT22;5118;48.570;7.916;2023-11-19T11:21:00;16.60;99.90
10155;DHT22;5118;48.570;7.916;2023-11-19T11:23:50;16.40;99.90
10155;DHT22;5118;48.570;7.916;2023-11-19T11:26:35;16.20;99.90
10155;DHT22;5118;48.570;7.916;2023-11-19T11:29:15;16.10;99.90
10155;DHT22;5118;48.570;7.916;2023-11-19T11:31:52;16.00;99.90
10155;DHT22;5118;48.570;7.916;2023-11-19T11:34:58;16.00;99.90
10155;DHT22;5118;48.570;7.916;2023-11-19T11:37:49;16.40;99.90
10155;DHT22;5118;48.570;7.916;2023-11-19T11:40:19;17.00;99.90
10155;DHT22;5118;48.570;7.916;2023-11-19T11:42:50;17.40;99.90
10155;DHT22;5118;48.570;7.916;2023-11-19T11:45:35;17.80;99.90
10155;DHT22;5118;48.570;7.916;2023-11-19T11:48:11;17.90;99.90
10155;DHT22;5118;48.570;7.916;2023-11-19T11:50:54;18.00;99.90
10155;DHT22;5118;48.570;7.916;2023-11-19T11:53:23;18.30;99.90
10155;DHT22;5118;48.570;7.916;2023-11-19T11:55:56;18.50;99.90
10155;DHT22;5118;48.570;7.916;2023-11-19T11:58:32;18.70;99.90
10155;DHT22;5118;48.570;7.916;2023-11-19T12:01:04;18.90;99.90
10155;DHT22;5118;48.570;7.916;2023-11-19T12:03:34;19.10;99.90
10155;DHT22;5118;48.570;7.916;2023-11-19T12:06:03;19.50;99.90
10155;DHT22;5118;48.570;7.916;2023-11-19T12:08:34;19.80;99.90
10155;DHT22;5118;48.570;7.916;2023-11-19T12:11:20;19.90;99.90
10155;DHT22;5118;48.570;7.916;2023-11-19T12:13:58;19.70;99.90
10155;DHT22;5118;48.570;7.916;2023-11-19T12:16:31;19.40;99.90
10155;DHT22;5118;48.570;7.916;2023-11-19T12:19:05;19.70;99.90
10155;DHT22;5118;48.570;7.916;2023-11-19T12:21:35;20.30;99.90
10155;DHT22;5118;48.570;7.916;2023-11-19T12:24:06;20.80;99.90
10155;DHT22;5118;48.570;7.916;2023-11-19T12:26:37;21.20;99.90
10155;DHT22;5118;48.570;7.916;2023-11-19T12:29:06;21.60;99.90
10155;DHT22;5118;48.570;7.916;2023-11-19T12:31:37;22.00;99.90
10155;DHT22;5118;48.570;7.916;2023-11-19T12:34:08;22.30;99.90
10155;DHT22;5118;48.570;7.916;2023-11-19T12:36:41;22.70;99.90
10155;DHT22;5118;48.570;7.916;2023-11-19T12:39:10;22.90;99.90
10155;DHT22;5118;48.570;7.916;2023-11-19T12:41:53;23.10;99.90
10155;DHT22;5118;48.570;7.916;2023-11-19T12:44:22;23.20;99.90
10155;DHT22;5118;48.570;7.916;2023-11-19T12:47:03;23.00;99.90
10155;DHT22;5118;48.570;7.916;2023-11-19T12:49:32;23.00;99.90
10155;DHT22;5118;48.570;7.916;2023-11-19T12:52:01;22.90;99.90
10155;DHT22;5118;48.570;7.916;2023-11-19T12:54:35;22.80;99.90
10155;DHT22;5118;48.570;7.916;2023-11-19T12:57:04;23.00;99.90
10155;DHT22;5118;48.570;7.916;2023-11-19T12:59:33;23.50;99.90
10155;DHT22;5118;48.570;7.916;2023-11-19T13:02:03;23.80;99.90
10155;DHT22;5118;48.570;7.916;2023-11-19T13:04:34;23.80;99.90
10155;DHT22;5118;48.570;7.916;2023-11-19T13:07:02;24.00;99.90
10155;DHT22;5118;48.570;7.916;2023-11-19T13:09:33;24.20;99.90
10155;DHT22;5118;48.570;7.916;2023-11-19T13:12:13;24.20;99.90
10155;DHT22;5118;48.570;7.916;2023-11-19T13:14:42;24.00;99.90
10155;DHT22;5118;48.570;7.916;2023-11-19T13:17:15;23.60;99.90
10155;DHT22;5118;48.570;7.916;2023-11-19T13:19:44;23.30;99.90
10155;DHT22;5118;48.570;7.916;2023-11-19T13:22:15;23.00;99.90
10155;DHT22;5118;48.570;7.916;2023-11-19T13:24:44;22.90;99.90
10155;DHT22;5118;48.570;7.916;2023-11-19T13:27:13;22.80;99.90
10155;DHT22;5118;48.570;7.916;2023-11-19T13:29:42;22.90;99.90
10155;DHT22;5118;48.570;7.916;2023-11-19T13:32:10;22.80;99.90
10155;DHT22;5118;48.570;7.916;2023-11-19T13:34:40;22.20;99.90
10155;DHT22;5118;48.570;7.916;2023-11-19T13:37:09;21.80;99.90
10155;DHT22;5118;48.570;7.916;2023-11-19T13:39:41;21.50;99.90
10155;DHT22;5118;48.570;7.916;2023-11-19T13:42:10;21.40;99.90
10155;DHT22;5118;48.570;7.916;2023-11-19T13:44:40;20.90;99.90
10155;DHT22;5118;48.570;7.916;2023-11-19T13:47:09;20.20;99.90
10155;DHT22;5118;48.570;7.916;2023-11-19T13:49:39;19.70;99.90
10155;DHT22;5118;48.570;7.916;2023-11-19T13:52:08;19.10;99.90
10155;DHT22;5118;48.570;7.916;2023-11-19T13:54:36;18.80;99.90
10155;DHT22;5118;48.570;7.916;2023-11-19T13:57:05;18.40;99.90
10155;DHT22;5118;48.570;7.916;2023-11-19T13:59:33;18.10;99.90
10155;DHT22;5118;48.570;7.916;2023-11-19T14:02:07;17.70;99.90
10155;DHT22;5118;48.570;7.916;2023-11-19T14:04:37;17.40;99.90
10155;DHT22;5118;48.570;7.916;2023-11-19T14:07:07;17.20;99.90
10155;DHT22;5118;48.570;7.916;2023-11-19T14:09:35;17.00;99.90
10155;DHT22;5118;48.570;7.916;2023-11-19T14:12:04;17.00;99.90
10155;DHT22;5118;48.570;7.916;2023-11-19T14:14:33;16.90;99.90
10155;DHT22;5118;48.570;7.916;2023-11-19T14:17:02;16.80;99.90
10155;DHT22;5118;48.570;7.916;2023-11-19T14:19:34;16.70;99.90
10155;DHT22;5118;48.570;7.916;2023-11-19T14:22:02;16.60;99.90
10155;DHT22;5118;48.570;7.916;2023-11-19T14:24:32;16.60;99.90
10155;DHT22;5118;48.570;7.916;2023-11-19T14:27:01;16.50;99.90
10155;DHT22;5118;48.570;7.916;2023-11-19T14:29:30;16.50;99.90
10155;DHT22;5118;48.570;7.916;2023-11-19T14:31:58;16.40;99.90
10155;DHT22;5118;48.570;7.916;2023-11-19T14:34:28;16.40;99.90
10155;DHT22;5118;48.570;7.916;2023-11-19T14:36:57;16.30;99.90
10155;DHT22;5118;48.570;7.916;2023-11-19T14:39:26;16.20;99.90
10155;DHT22;5118;48.570;7.916;2023-11-19T14:41:57;16.10;99.90
10155;DHT22;5118;48.570;7.916;2023-11-19T14:44:28;16.00;99.90
10155;DHT22;5118;48.570;7.916;2023-11-19T14:46:56;16.00;99.90
10155;DHT22;5118;48.570;7.916;2023-11-19T14:49:25;15.90;99.90
10155;DHT22;5118;48.570;7.916;2023-11-19T14:51:54;15.90;99.90
10155;DHT22;5118;48.570;7.916;2023-11-19T14:54:23;15.80;99.90
10155;DHT22;5118;48.570;7.916;2023-11-19T14:56:53;15.70;99.90
10155;DHT22;5118;48.570;7.916;2023-11-19T14:59:22;15.80;99.90
10155;DHT22;5118;48.570;7.916;2023-11-19T15:01:50;15.70;99.90
10155;DHT22;5118;48.570;7.916;2023-11-19T15:04:19;15.80;99.90
10155;DHT22;5118;48.570;7.916;2023-11-19T15:06:49;15.80;99.90
10155;DHT22;5118;48.570;7.916;2023-11-19T15:09:17;15.70;99.90
10155;DHT22;5118;48.570;7.916;2023-11-19T15:11:48;15.70;99.90
10155;DHT22;5118;48.570;7.916;2023-11-19T15:14:17;15.70;99.90
10155;DHT22;5118;48.570;7.916;2023-11-19T15:16:48;15.60;99.90
10155;DHT22;5118;48.570;7.916;2023-11-19T15:19:19;15.50;99.90
10155;DHT22;5118;48.570;7.916;2023-11-19T15:21:48;15.50;99.90
10155;DHT22;5118;48.570;7.916;2023-11-19T15:24:17;15.50;99.90
10155;DHT22;5118;48.570;7.916;2023-11-19T15:26:45;15.40;99.90
10155;DHT22;5118;48.570;7.916;2023-11-19T15:29:14;15.30;99.90
10155;DHT22;5118;48.570;7.916;2023-11-19T15:31:42;15.30;99.90
10155;DHT22;5118;48.570;7.916;2023-11-19T15:34:13;15.20;99.90
10155;DHT22;5118;48.570;7.916;2023-11-19T15:36:41;15.20;99.90
10155;DHT22;5118;48.570;7.916;2023-11-19T15:39:09;15.10;99.90
10155;DHT22;5118;48.570;7.916;2023-11-19T15:41:40;15.00;99.90
10155;DHT22;5118;48.570;7.916;2023-11-19T15:44:09;14.90;99.90
10155;DHT22;5118;48.570;7.916;2023-11-19T15:46:40;14.80;99.90
10155;DHT22;5118;48.570;7.916;2023-11-19T15:49:09;14.80;99.90
10155;DHT22;5118;48.570;7.916;2023-11-19T15:51:40;14.70;99.90
10155;DHT22;5118;48.570;7.916;2023-11-19T15:54:09;14.70;99.90
10155;DHT22;5118;48.570;7.916;2023-11-19T15:56:38;14.70;99.90
10155;DHT22;5118;48.570;7.916;2023-11-19T15:59:06;14.70;99.90
10155;DHT22;5118;48.570;7.916;2023-11-19T16:01:35;14.70;99.90
10155;DHT22;5118;48.570;7.916;2023-11-19T16:04:04;14.60;99.90
10155;DHT22;5118;48.570;7.916;2023-11-19T16:06:34;14.60;99.90